Terminal Aerodrome Forecast
Issued by NWS New Orleans/Baton Rouge, LA

Home | Current Version | Previous Version | Text Only | Print | Product List | Glossary On
Versions: 1 2 3 4 5 6 7 8 9 10 11 12 13
000
FTUS44 KLIX 291700 RRA
TAFBTR
TAF
KBTR 291744Z 2918/3018 23007KT P6SM SCT025 SCT250
     FM300200 29004KT P6SM BKN100
     FM300500 01007KT P6SM BKN035
     FM300900 02009KT P6SM SCT250
     FM301500 04009KT P6SM SKC=

USA.gov is the U.S. government's official web portal to all federal, state and local government web resources and services.